createdAt,value
2019-01-14T00:02:18.649Z,98890.47
2019-01-14T00:04:46.997Z,98902.80
2019-01-14T00:07:15.401Z,98897.55
2019-01-14T00:09:43.860Z,98891.39
2019-01-14T00:12:12.606Z,98909.05
2019-01-14T00:14:41.017Z,98907.61
2019-01-14T00:17:09.570Z,98908.33
2019-01-14T00:19:37.916Z,98907.92
2019-01-14T00:22:06.947Z,98913.66
2019-01-14T00:24:35.372Z,98922.91
2019-01-14T00:27:03.829Z,98931.52
2019-01-14T00:29:32.159Z,98934.83
2019-01-14T00:32:00.494Z,98928.13
2019-01-14T00:34:29.205Z,98938.19
2019-01-14T00:36:57.509Z,98935.23
2019-01-14T00:39:25.847Z,98940.26
2019-01-14T00:41:54.192Z,98945.57
2019-01-14T00:44:22.534Z,98951.45
2019-01-14T00:46:50.828Z,98949.27
2019-01-14T00:49:19.161Z,98944.67
2019-01-14T00:51:47.483Z,98957.59
2019-01-14T00:54:15.822Z,98972.07
2019-01-14T00:56:44.138Z,98978.44
2019-01-14T00:59:12.544Z,98987.66
2019-01-14T01:01:40.961Z,98983.98
2019-01-14T01:04:09.598Z,98981.09
2019-01-14T01:06:38.019Z,98985.19
2019-01-14T01:09:07.040Z,98990.33
2019-01-14T01:11:35.453Z,98988.80
2019-01-14T01:14:03.921Z,98999.36
2019-01-14T01:16:32.277Z,98981.72
2019-01-14T01:19:00.605Z,98980.97
2019-01-14T01:21:29.006Z,98979.42
2019-01-14T01:23:57.312Z,98984.95
2019-01-14T01:26:25.657Z,98994.95
2019-01-14T01:28:54.005Z,99004.19
2019-01-14T01:31:22.342Z,99006.44
2019-01-14T01:33:50.673Z,99023.50
2019-01-14T01:36:19.072Z,99027.20
2019-01-14T01:38:47.373Z,99029.56
2019-01-14T01:41:15.722Z,99022.84
2019-01-14T01:43:44.032Z,99040.52
2019-01-14T01:46:12.989Z,99049.75
2019-01-14T01:48:41.297Z,99055.91
2019-01-14T01:51:10.154Z,99062.92
2019-01-14T01:53:38.461Z,99059.20
2019-01-14T01:56:06.820Z,99066.05
2019-01-14T01:58:35.160Z,99072.30
2019-01-14T02:01:03.827Z,99063.17
2019-01-14T02:03:32.172Z,99086.87
2019-01-14T02:06:00.509Z,99084.41
2019-01-14T02:08:28.845Z,99084.82
2019-01-14T02:10:57.174Z,99094.05
2019-01-14T02:13:25.533Z,99094.64
2019-01-14T02:15:53.866Z,99102.80
2019-01-14T02:18:22.170Z,99107.39
2019-01-14T02:20:50.513Z,99093.41
2019-01-14T02:23:18.865Z,99098.74
2019-01-14T02:25:47.148Z,99098.57
2019-01-14T02:28:15.510Z,99098.90
2019-01-14T02:30:43.835Z,99098.39
2019-01-14T02:33:12.614Z,99099.77
2019-01-14T02:35:41.195Z,99098.22
2019-01-14T02:38:09.590Z,99101.63
2019-01-14T02:40:38.017Z,99103.56
2019-01-14T02:43:06.315Z,99090.95
2019-01-14T02:45:34.679Z,99093.67
2019-01-14T02:48:03.261Z,99097.58
2019-01-14T02:50:31.566Z,99099.78
2019-01-14T02:52:59.896Z,99099.30
2019-01-14T02:55:28.218Z,99099.16
2019-01-14T02:57:56.533Z,99100.38
2019-01-14T03:00:25.689Z,99107.82
2019-01-14T03:02:54.078Z,99100.52
2019-01-14T03:05:23.145Z,99109.08
2019-01-14T03:07:51.552Z,99120.64
2019-01-14T03:10:19.953Z,99116.34
2019-01-14T03:12:48.337Z,99134.80
2019-01-14T03:15:18.285Z,99132.07
2019-01-14T03:17:48.203Z,99133.55
2019-01-14T03:20:17.688Z,99133.91
2019-01-14T03:22:46.026Z,99134.05
2019-01-14T03:25:15.518Z,99139.86
2019-01-14T03:27:43.884Z,99142.79
2019-01-14T03:30:15.328Z,99148.83
2019-01-14T03:32:43.678Z,99148.65
2019-01-14T03:35:13.001Z,99154.37
2019-01-14T03:37:41.456Z,99151.42
2019-01-14T03:40:11.538Z,99148.65
2019-01-14T03:42:40.607Z,99144.03
2019-01-14T03:45:11.351Z,99146.10
2019-01-14T03:47:39.683Z,99152.22
2019-01-14T03:50:11.215Z,99154.42
2019-01-14T03:52:39.534Z,99150.12
2019-01-14T03:55:08.150Z,99157.68
2019-01-14T03:57:36.516Z,99158.39
2019-01-14T04:00:08.172Z,99162.94
2019-01-14T04:02:36.588Z,99170.62
2019-01-14T04:05:06.986Z,99179.31
2019-01-14T04:07:35.363Z,99167.96
2019-01-14T04:10:07.021Z,99173.16
2019-01-14T04:12:35.363Z,99172.22
2019-01-14T04:15:05.306Z,99175.00
2019-01-14T04:17:33.654Z,99180.38
2019-01-14T04:20:02.482Z,99183.94
2019-01-14T04:22:30.815Z,99189.02
2019-01-14T04:24:59.132Z,99191.38
2019-01-14T04:27:27.433Z,99187.81
2019-01-14T04:29:55.777Z,99189.34
2019-01-14T04:32:24.100Z,99193.19
2019-01-14T04:34:52.437Z,99203.20
2019-01-14T04:37:21.874Z,99198.66
2019-01-14T04:39:50.286Z,99209.81
2019-01-14T04:42:18.629Z,99222.66
2019-01-14T04:44:46.969Z,99230.10
2019-01-14T04:47:15.284Z,99225.40
2019-01-14T04:49:43.628Z,99227.55
2019-01-14T04:52:12.213Z,99225.19
2019-01-14T04:54:40.558Z,99232.25
2019-01-14T04:57:08.904Z,99237.89
2019-01-14T04:59:37.265Z,99246.00
2019-01-14T05:02:05.749Z,99258.42
2019-01-14T05:04:34.156Z,99256.22
2019-01-14T05:07:02.555Z,99266.30
2019-01-14T05:09:30.920Z,99261.87
2019-01-14T05:11:59.263Z,99266.26
2019-01-14T05:14:27.591Z,99274.61
2019-01-14T05:16:56.028Z,99277.34
2019-01-14T05:19:24.909Z,99285.34
2019-01-14T05:21:53.330Z,99288.09
2019-01-14T05:24:21.658Z,99296.25
2019-01-14T05:26:49.998Z,99289.27
2019-01-14T05:29:18.398Z,99292.64
2019-01-14T05:31:46.763Z,99302.78
2019-01-14T05:34:15.149Z,99306.27
2019-01-14T05:36:43.497Z,99309.14
2019-01-14T05:39:11.877Z,99314.08
2019-01-14T05:41:40.216Z,99314.28
2019-01-14T05:44:08.773Z,99320.63
2019-01-14T05:46:37.108Z,99316.90
2019-01-14T05:49:05.433Z,99321.95
2019-01-14T05:51:33.804Z,99326.03
2019-01-14T05:54:02.285Z,99327.09
2019-01-14T05:56:30.627Z,99326.97
2019-01-14T05:58:58.970Z,99330.34
2019-01-14T06:01:27.797Z,99331.59
2019-01-14T06:03:56.130Z,99334.37
2019-01-14T06:06:24.575Z,99342.03
2019-01-14T06:08:52.886Z,99338.03
2019-01-14T06:11:21.222Z,99346.63
2019-01-14T06:13:49.564Z,99349.70
2019-01-14T06:16:18.488Z,99346.53
2019-01-14T06:18:46.971Z,99355.22
2019-01-14T06:21:15.298Z,99352.16
2019-01-14T06:23:43.620Z,99364.67
2019-01-14T06:26:12.239Z,99375.33
2019-01-14T06:28:40.576Z,99378.30
2019-01-14T06:31:08.886Z,99377.04
2019-01-14T06:33:37.225Z,99385.31
2019-01-14T06:36:05.633Z,99377.86
2019-01-14T06:38:34.087Z,99372.34
2019-01-14T06:41:02.486Z,99363.94
2019-01-14T06:43:30.813Z,99385.41
2019-01-14T06:45:59.158Z,99375.99
2019-01-14T06:48:27.594Z,99379.70
2019-01-14T06:50:56.218Z,99389.12
2019-01-14T06:53:24.517Z,99387.50
2019-01-14T06:55:52.830Z,99408.05
2019-01-14T06:58:21.202Z,99418.52
2019-01-14T07:00:50.364Z,99424.89
2019-01-14T07:03:18.720Z,99421.37
2019-01-14T07:05:48.126Z,99416.36
2019-01-14T07:08:16.886Z,99424.16
2019-01-14T07:10:46.091Z,99438.72
2019-01-14T07:13:17.187Z,99444.45
2019-01-14T07:15:45.941Z,99452.72
2019-01-14T07:18:15.009Z,99444.22
2019-01-14T07:20:45.305Z,99449.93
2019-01-14T07:23:14.442Z,99449.66
2019-01-14T07:25:44.262Z,99454.86
2019-01-14T07:28:12.914Z,99459.27
2019-01-14T07:30:42.462Z,99459.49
2019-01-14T07:33:10.913Z,99462.50
2019-01-14T07:35:39.328Z,99464.47
2019-01-14T07:38:08.107Z,99467.22
2019-01-14T07:40:36.457Z,99463.03
2019-01-14T07:43:04.828Z,99472.42
2019-01-14T07:45:33.533Z,99484.38
2019-01-14T07:48:01.916Z,99484.91
2019-01-14T07:50:30.309Z,99484.36
2019-01-14T07:52:58.734Z,99488.73
2019-01-14T07:55:27.143Z,99489.66
2019-01-14T07:57:55.469Z,99488.86
2019-01-14T08:00:24.498Z,99481.42
2019-01-14T08:02:52.858Z,99492.21
2019-01-14T10:58:24.545Z,99670.75
2019-01-14T11:00:53.345Z,99676.45
2019-01-14T11:03:22.723Z,99681.20
2019-01-14T11:05:51.930Z,99680.55
2019-01-14T11:08:20.955Z,99683.17
2019-01-14T11:10:50.033Z,99694.80
2019-01-14T11:13:18.884Z,99693.25
2019-01-14T11:15:47.914Z,99691.69
2019-01-14T11:18:16.985Z,99697.59
2019-01-14T11:20:46.118Z,99705.41
2019-01-14T11:23:14.408Z,99707.54
2019-01-14T11:25:42.812Z,99704.52
2019-01-14T11:28:11.242Z,99706.58
2019-01-14T11:30:39.571Z,99702.44
2019-01-14T11:33:08.185Z,99710.17
2019-01-14T11:35:38.304Z,99722.52
2019-01-14T11:38:08.710Z,99712.10
2019-01-14T11:40:37.168Z,99723.97
2019-01-14T11:43:05.526Z,99737.52
2019-01-14T11:45:33.931Z,99732.97
2019-01-14T11:48:02.381Z,99733.23
2019-01-14T11:50:30.740Z,99728.94
2019-01-14T11:52:59.146Z,99724.56
2019-01-14T11:55:27.566Z,99727.60
2019-01-14T11:57:55.859Z,99732.67
2019-01-14T12:00:25.816Z,99732.19
2019-01-14T12:02:54.309Z,99749.66
2019-01-14T12:05:22.778Z,99747.38
2019-01-14T12:07:51.144Z,99764.27
2019-01-14T12:10:19.595Z,99768.70
2019-01-14T12:12:48.063Z,99766.59
2019-01-14T12:15:17.726Z,99764.91
2019-01-14T12:17:46.121Z,99780.19
2019-01-14T12:20:15.509Z,99777.53
2019-01-14T12:22:43.933Z,99776.82
2019-01-14T12:25:13.881Z,99782.80
2019-01-14T12:27:42.252Z,99785.28
2019-01-14T12:30:17.019Z,99795.73
2019-01-14T12:32:45.322Z,99785.63
2019-01-14T12:35:14.427Z,99799.25
2019-01-14T12:37:42.905Z,99787.16
2019-01-14T12:40:12.477Z,99790.89
2019-01-14T12:42:40.858Z,99785.88
2019-01-14T12:45:13.902Z,99791.67
2019-01-14T12:47:42.222Z,99788.59
2019-01-14T12:50:13.764Z,99792.81
2019-01-14T12:52:42.084Z,99783.76
2019-01-14T12:55:12.882Z,99788.94
2019-01-14T12:57:41.359Z,99790.13
2019-01-14T13:00:14.692Z,99792.69
2019-01-14T13:02:43.046Z,99793.67
2019-01-14T13:05:13.245Z,99790.13
2019-01-14T13:07:41.640Z,99785.31
2019-01-14T13:10:12.005Z,99785.55
2019-01-14T13:12:40.533Z,99782.74
2019-01-14T13:15:12.802Z,99796.91
2019-01-14T13:17:41.155Z,99808.66
2019-01-14T13:20:13.048Z,99814.50
2019-01-14T13:22:41.361Z,99808.61
2019-01-14T13:25:10.343Z,99810.22
2019-01-14T13:27:38.803Z,99814.64
2019-01-14T13:30:09.804Z,99820.34
2019-01-14T13:32:38.187Z,99822.91
2019-01-14T13:35:07.241Z,99831.77
2019-01-14T13:37:35.631Z,99838.25
2019-01-14T13:40:06.055Z,99852.16
2019-01-14T13:42:34.395Z,99850.78
2019-01-14T13:45:03.100Z,99844.59
2019-01-14T13:47:31.437Z,99859.32
2019-01-14T13:49:59.766Z,99853.99
2019-01-14T13:52:28.424Z,99857.23
2019-01-14T13:54:56.733Z,99864.06
2019-01-14T13:57:25.130Z,99865.91
2019-01-14T13:59:53.454Z,99874.59
2019-01-14T14:02:21.802Z,99872.61
2019-01-14T14:04:50.106Z,99874.33
2019-01-14T14:07:18.525Z,99873.67
2019-01-14T14:09:46.939Z,99880.65
2019-01-14T14:12:15.241Z,99887.95
2019-01-14T14:14:43.711Z,99878.30
2019-01-14T14:17:12.731Z,99876.28
2019-01-14T14:19:41.229Z,99880.22
2019-01-14T14:22:11.808Z,99883.86
2019-01-14T14:24:39.852Z,99893.06
2019-01-14T14:27:08.496Z,99895.70
2019-01-14T14:29:36.816Z,99904.70
2019-01-14T14:32:05.209Z,99909.02
2019-01-14T14:34:33.605Z,99920.30
2019-01-14T14:37:01.957Z,99926.13
2019-01-14T14:39:30.284Z,99943.14
2019-01-14T14:41:58.580Z,99936.16
2019-01-14T14:44:26.930Z,99936.66
2019-01-14T14:46:55.428Z,99928.71
2019-01-14T14:49:23.783Z,99939.03
2019-01-14T14:51:52.505Z,99942.02
2019-01-14T14:54:20.852Z,99948.50
2019-01-14T14:56:49.128Z,99960.69
2019-01-14T14:59:17.564Z,99966.55
2019-01-14T15:01:45.965Z,99972.50
2019-01-14T15:04:14.286Z,99967.35
2019-01-14T15:06:42.638Z,99972.67
2019-01-14T15:09:12.012Z,99976.00
2019-01-14T15:11:40.302Z,99992.78
2019-01-14T15:14:08.765Z,99997.46
2019-01-14T15:16:37.089Z,99997.27
2019-01-14T15:19:05.549Z,100004.77
2019-01-14T15:21:33.883Z,100007.27
2019-01-14T15:24:02.819Z,100019.23
2019-01-14T15:26:31.287Z,100027.72
2019-01-14T15:28:59.661Z,100036.19
2019-01-14T15:31:28.002Z,100025.20
2019-01-14T15:33:56.313Z,100038.33
2019-01-14T15:36:24.661Z,100042.48
2019-01-14T15:38:52.977Z,100039.84
2019-01-14T15:41:21.330Z,100054.61
2019-01-14T15:43:49.686Z,100053.44
2019-01-14T15:46:18.080Z,100048.43
2019-01-14T15:48:46.413Z,100041.12
2019-01-14T15:51:14.801Z,100044.91
2019-01-14T15:53:43.117Z,100047.23
2019-01-14T15:56:11.475Z,100053.69
2019-01-14T15:58:39.773Z,100056.14
2019-01-14T16:01:08.118Z,100064.61
2019-01-14T16:03:36.503Z,100064.11
2019-01-14T16:06:04.894Z,100070.63
2019-01-14T16:08:33.209Z,100075.23
2019-01-14T16:11:01.562Z,100077.89
2019-01-14T16:13:29.932Z,100079.33
2019-01-14T16:15:58.246Z,100085.42
2019-01-14T16:18:26.626Z,100094.22
2019-01-14T16:20:55.017Z,100102.97
2019-01-14T16:23:23.373Z,100110.45
2019-01-14T16:25:51.714Z,100121.55
2019-01-14T16:28:20.037Z,100112.26
2019-01-14T16:30:48.449Z,100115.52
2019-01-14T16:33:16.821Z,100121.67
2019-01-14T16:35:45.167Z,100113.53
2019-01-14T16:38:13.637Z,100120.78
2019-01-14T16:40:41.988Z,100129.61
2019-01-14T16:43:10.427Z,100136.03
2019-01-14T16:45:38.790Z,100148.48
2019-01-14T16:48:07.197Z,100152.06
2019-01-14T16:50:35.632Z,100137.09
2019-01-14T16:53:04.093Z,100147.56
2019-01-14T16:55:35.262Z,100157.95
2019-01-14T16:58:03.630Z,100168.56
2019-01-14T17:00:32.133Z,100163.57
2019-01-14T17:03:00.472Z,100170.20
2019-01-14T17:05:28.772Z,100176.33
2019-01-14T17:07:57.127Z,100179.23
2019-01-14T17:10:25.517Z,100185.02
2019-01-14T17:12:53.918Z,100184.77
2019-01-14T17:15:22.230Z,100182.77
2019-01-14T17:17:50.549Z,100180.55
2019-01-14T17:20:19.249Z,100184.16
2019-01-14T17:22:47.927Z,100200.63
2019-01-14T17:25:16.355Z,100197.66
2019-01-14T17:27:45.285Z,100204.45
2019-01-14T17:30:15.565Z,100202.94
2019-01-14T17:32:44.179Z,100223.17
2019-01-14T17:35:13.153Z,100224.55
2019-01-14T17:37:41.484Z,100224.05
2019-01-14T17:40:13.685Z,100235.31
2019-01-14T17:42:42.132Z,100234.63
2019-01-14T17:45:11.708Z,100248.23
2019-01-14T17:47:40.015Z,100230.92
2019-01-14T17:50:11.051Z,100255.73
2019-01-14T17:52:40.389Z,100254.94
2019-01-14T17:55:09.425Z,100261.58
2019-01-14T17:57:37.801Z,100265.81
2019-01-14T18:00:11.767Z,100268.91
2019-01-14T18:02:40.080Z,100264.39
2019-01-14T18:05:08.668Z,100267.20
2019-01-14T18:07:37.034Z,100262.27
2019-01-14T18:10:09.992Z,100269.42
2019-01-14T18:12:38.435Z,100274.62
2019-01-14T18:15:07.614Z,100284.22
2019-01-14T18:17:36.015Z,100288.80
2019-01-14T18:20:06.258Z,100284.25
2019-01-14T18:22:34.596Z,100300.48
2019-01-14T18:25:03.070Z,100300.89
2019-01-14T18:27:31.836Z,100304.36
2019-01-14T18:30:00.298Z,100306.27
2019-01-14T18:32:28.613Z,100321.37
2019-01-14T18:34:56.983Z,100326.95
2019-01-14T18:37:25.394Z,100320.31
2019-01-14T18:39:53.821Z,100329.19
2019-01-14T18:42:22.169Z,100341.98
2019-01-14T18:44:50.508Z,100338.22
2019-01-14T18:47:19.232Z,100339.92
2019-01-14T18:49:47.537Z,100336.05
2019-01-14T18:52:15.973Z,100347.22
2019-01-14T18:54:44.324Z,100353.81
2019-01-14T18:57:12.798Z,100343.22
2019-01-14T18:59:41.162Z,100359.84
2019-01-14T19:02:09.731Z,100362.87
2019-01-14T19:04:38.057Z,100371.83
2019-01-14T19:07:06.400Z,100372.05
2019-01-14T19:09:34.884Z,100377.11
2019-01-14T19:12:03.298Z,100373.78
2019-01-14T19:14:31.670Z,100376.08
2019-01-14T19:17:00.014Z,100383.67
2019-01-14T19:19:28.394Z,100378.16
2019-01-14T19:21:56.725Z,100381.86
2019-01-14T19:24:25.063Z,100386.46
2019-01-14T19:26:54.577Z,100388.00
2019-01-14T19:29:23.042Z,100389.53
2019-01-14T19:31:51.857Z,100397.82
2019-01-14T19:34:20.317Z,100405.09
2019-01-14T19:36:48.730Z,100414.55
2019-01-14T19:39:17.129Z,100419.59
2019-01-14T19:41:45.461Z,100430.53
2019-01-14T19:44:13.839Z,100429.61
2019-01-14T19:46:43.109Z,100433.77
2019-01-14T19:49:12.206Z,100435.39
2019-01-14T19:51:40.527Z,100439.08
2019-01-14T19:54:08.934Z,100441.17
2019-01-14T19:56:37.235Z,100441.88
2019-01-14T19:59:05.677Z,100434.55
2019-01-14T20:01:34.063Z,100449.08
2019-01-14T20:04:02.436Z,100452.95
2019-01-14T20:06:30.770Z,100456.42
2019-01-14T20:08:59.121Z,100455.83
2019-01-14T20:11:27.517Z,100459.31
2019-01-14T20:13:56.007Z,100461.63
2019-01-14T20:16:24.367Z,100454.80
2019-01-14T20:18:52.756Z,100458.22
2019-01-14T20:21:21.159Z,100463.72
2019-01-14T20:23:52.455Z,100466.50
2019-01-14T20:26:19.834Z,100468.86
2019-01-14T20:28:48.180Z,100468.98
2019-01-14T20:31:16.544Z,100471.83
2019-01-14T20:33:44.899Z,100481.44
2019-01-14T20:36:13.656Z,100482.83
2019-01-14T20:38:41.985Z,100476.58
2019-01-14T20:41:16.436Z,100483.55
2019-01-14T20:43:41.332Z,100480.92
2019-01-14T20:46:09.688Z,100476.11
2019-01-14T20:48:38.028Z,100476.12
2019-01-14T20:51:06.424Z,100466.16
2019-01-14T20:53:34.762Z,100461.53
2019-01-14T20:56:03.200Z,100471.66
2019-01-14T20:58:31.515Z,100471.96
2019-01-14T21:00:59.951Z,100476.69
2019-01-14T21:03:28.370Z,100483.42
2019-01-14T21:05:56.839Z,100480.27
2019-01-14T21:08:25.145Z,100483.45
2019-01-14T21:10:54.182Z,100479.02
2019-01-14T21:13:22.512Z,100490.89
2019-01-14T21:15:50.867Z,100492.53
2019-01-14T21:18:19.271Z,100503.91
2019-01-14T21:20:47.623Z,100501.59
2019-01-14T21:23:15.961Z,100510.05
2019-01-14T21:25:44.322Z,100512.63
2019-01-14T21:28:12.722Z,100513.44
2019-01-14T21:30:41.122Z,100512.48
2019-01-14T21:33:09.732Z,100505.72
2019-01-14T21:35:38.055Z,100516.44
2019-01-14T21:38:06.376Z,100518.33
2019-01-14T21:40:34.812Z,100514.09
2019-01-14T21:43:03.182Z,100507.23
2019-01-14T21:45:31.545Z,100521.48
2019-01-14T21:48:00.639Z,100519.06
2019-01-14T21:50:29.267Z,100516.16
2019-01-14T21:52:57.799Z,100510.97
2019-01-14T21:55:26.185Z,100517.27
2019-01-14T21:57:54.582Z,100516.82
2019-01-14T22:00:23.525Z,100518.11
2019-01-14T22:02:51.955Z,100525.14
2019-01-14T22:05:20.861Z,100529.21
2019-01-14T22:07:49.345Z,100534.84
2019-01-14T22:10:21.049Z,100536.38
2019-01-14T22:12:49.390Z,100553.99
2019-01-14T22:15:17.744Z,100556.06
2019-01-14T22:17:46.105Z,100563.87
2019-01-14T22:20:15.813Z,100561.27
2019-01-14T22:22:44.296Z,100570.78
2019-01-14T22:25:13.598Z,100571.80
2019-01-14T22:27:42.018Z,100579.41
2019-01-14T22:30:14.702Z,100579.89
2019-01-14T22:32:43.049Z,100571.54
2019-01-14T22:35:12.029Z,100564.70
2019-01-14T22:37:40.422Z,100569.96
2019-01-14T22:40:12.743Z,100569.17
2019-01-14T22:42:41.164Z,100569.70
2019-01-14T22:45:10.752Z,100573.02
2019-01-14T22:47:39.171Z,100569.44
2019-01-14T22:50:10.174Z,100562.50
2019-01-14T22:52:38.615Z,100566.17
2019-01-14T22:55:08.266Z,100571.19
2019-01-14T22:57:36.612Z,100565.16
2019-01-14T23:00:13.658Z,100573.89
2019-01-14T23:02:42.116Z,100575.36
2019-01-14T23:05:11.000Z,100572.64
2019-01-14T23:07:39.369Z,100578.81
2019-01-14T23:10:07.865Z,100579.52
2019-01-14T23:12:36.244Z,100580.77
2019-01-14T23:15:06.165Z,100578.17
2019-01-14T23:17:34.473Z,100582.36
2019-01-14T23:20:03.022Z,100579.34
2019-01-14T23:22:31.361Z,100582.28
2019-01-14T23:24:59.726Z,100585.42
2019-01-14T23:27:28.130Z,100591.38
2019-01-14T23:29:56.466Z,100591.00
2019-01-14T23:32:25.251Z,100599.34
2019-01-14T23:34:53.648Z,100594.73
2019-01-14T23:37:22.036Z,100590.66
2019-01-14T23:39:50.450Z,100594.23
2019-01-14T23:42:19.318Z,100600.09
2019-01-14T23:44:47.689Z,100613.28
2019-01-14T23:47:16.006Z,100612.55
2019-01-14T23:49:44.357Z,100609.20
2019-01-14T23:52:12.958Z,100612.50
2019-01-14T23:54:41.309Z,100614.38
2019-01-14T23:57:11.352Z,100615.00
2019-01-14T23:59:39.696Z,100613.67
